Time;durP1;ratioP1;P1;durP2;ratioP2;P2;SDS_P1;SDS_P2;PMS_P1;PMS_P2;Temp;Humidity;BMP_temperature;BMP_pressure;BME280_temperature;BME280_humidity;BME280_pressure;Samples;Min_cycle;Max_cycle;Signal;HPM_P1;HPM_P2
2022/03/25 02:44:13;;;;;;;22.77;14.63;;;7.30;90.30;;;;;;6102447;23;20218;-85
2022/03/25 05:02:55;;;;;;;25.00;16.20;;;6.40;97.10;;;;;;6015342;23;20551;-86
2022/03/25 05:05:23;;;;;;;26.48;15.05;;;6.40;96.90;;;;;;6098098;23;20180;-86
2022/03/25 05:07:50;;;;;;;26.00;15.27;;;6.40;96.80;;;;;;6102913;23;20250;-86
2022/03/25 05:10:18;;;;;;;23.35;14.40;;;6.40;96.90;;;;;;6111801;23;20185;-86
2022/03/25 05:12:46;;;;;;;32.58;17.23;;;6.40;96.80;;;;;;6109806;23;20480;-86
2022/03/25 05:15:17;;;;;;;24.90;15.97;;;6.40;97.00;;;;;;6116895;23;20220;-86
2022/03/25 05:17:51;;;;;;;26.30;16.48;;;6.30;97.10;;;;;;6117342;23;20413;-85
2022/03/25 05:20:22;;;;;;;31.83;16.25;;;6.00;97.20;;;;;;6110343;23;20168;-86
2022/03/25 05:22:51;;;;;;;25.23;15.43;;;6.30;97.60;;;;;;6106321;23;20208;-86
2022/03/25 05:25:19;;;;;;;28.80;16.00;;;6.00;97.70;;;;;;6097670;23;20185;-86
2022/03/25 05:27:48;;;;;;;34.08;17.13;;;6.20;97.90;;;;;;6101581;23;20629;-86
2022/03/25 05:30:19;;;;;;;27.65;17.13;;;6.20;98.10;;;;;;6108337;23;20185;-86
2022/03/25 05:32:46;;;;;;;25.92;15.32;;;6.10;98.40;;;;;;6110884;23;20210;-86
2022/03/25 05:35:13;;;;;;;25.20;16.00;;;6.10;98.50;;;;;;6098611;23;20212;-86
2022/03/25 05:37:42;;;;;;;30.05;17.00;;;6.10;98.60;;;;;;6098288;23;20221;-86
2022/03/25 05:40:14;;;;;;;26.38;16.48;;;6.20;98.60;;;;;;6100820;23;20177;-87
2022/03/25 05:42:47;;;;;;;26.20;17.75;;;6.20;98.50;;;;;;6111115;23;20236;-87
2022/03/25 05:45:22;;;;;;;31.77;15.98;;;6.30;98.60;;;;;;6105435;23;20237;-87
2022/03/25 05:47:52;;;;;;;23.83;15.40;;;6.20;98.50;;;;;;6098423;23;20491;-86
2022/03/25 05:50:23;;;;;;;29.80;17.40;;;6.20;98.60;;;;;;6098294;23;20473;-86
2022/03/25 05:52:59;;;;;;;30.25;18.10;;;6.10;98.70;;;;;;6097609;23;20283;-87
2022/03/25 05:55:31;;;;;;;26.95;16.63;;;5.70;98.70;;;;;;6098010;23;20184;-86
2022/03/25 05:58:04;;;;;;;30.83;17.70;;;6.00;99.00;;;;;;6097450;23;20642;-86
2022/03/25 06:00:42;;;;;;;30.48;18.00;;;6.00;99.50;;;;;;6109100;23;20307;-87
2022/03/25 06:03:10;;;;;;;26.80;16.10;;;6.00;99.90;;;;;;6112456;23;20260;-86
2022/03/25 06:05:48;;;;;;;29.60;16.95;;;6.00;99.90;;;;;;6099010;23;20188;-87
2022/03/25 06:18:40;;;;;;;29.63;18.27;;;6.30;99.00;;;;;;6093238;23;20570;-85
2022/03/25 06:21:08;;;;;;;32.33;18.73;;;6.40;98.60;;;;;;6099149;23;20211;-86
2022/03/25 06:23:42;;;;;;;30.73;17.63;;;6.40;98.50;;;;;;6099961;23;20631;-86
2022/03/25 06:26:11;;;;;;;29.88;17.88;;;6.50;98.60;;;;;;6101374;23;20189;-86
2022/03/25 06:28:43;;;;;;;31.02;17.38;;;6.60;98.70;;;;;;6101256;23;20200;-87
2022/03/25 06:31:16;;;;;;;27.40;16.08;;;6.60;98.80;;;;;;6100011;23;20181;-86
2022/03/25 06:34:07;;;;;;;28.92;16.75;;;6.70;98.80;;;;;;6101249;23;20224;-86
2022/03/25 06:36:39;;;;;;;30.40;18.30;;;6.80;98.60;;;;;;6099909;23;20256;-86
2022/03/25 06:39:15;;;;;;;30.67;17.33;;;6.90;98.50;;;;;;6103098;23;20443;-86
2022/03/25 06:41:55;;;;;;;29.30;17.05;;;6.90;98.40;;;;;;6103561;23;20217;-86
2022/03/25 06:44:25;;;;;;;32.08;17.85;;;7.10;97.80;;;;;;6101656;23;20188;-86
2022/03/25 06:46:59;;;;;;;39.87;21.20;;;7.20;97.40;;;;;;6098657;23;20180;-85
2022/03/25 06:49:30;;;;;;;32.80;17.95;;;7.40;97.10;;;;;;6100115;23;20423;-86
2022/03/25 06:52:06;;;;;;;29.10;17.37;;;7.40;96.80;;;;;;6106921;23;20208;-87
2022/03/25 06:54:34;;;;;;;31.38;18.40;;;7.50;96.70;;;;;;6102785;23;20464;-88
2022/03/25 06:57:02;;;;;;;36.13;19.93;;;7.50;96.30;;;;;;6100997;23;20209;-86
2022/03/25 07:02:28;;;;;;;35.10;18.03;;;7.70;96.10;;;;;;6096645;23;20831;-85
2022/03/25 07:05:03;;;;;;;31.63;18.10;;;7.70;95.60;;;;;;6105961;23;20476;-85
2022/03/25 07:07:43;;;;;;;39.37;19.77;;;7.80;95.40;;;;;;6114070;23;20161;-86
2022/03/25 07:10:17;;;;;;;38.53;20.07;;;7.90;95.50;;;;;;6112351;23;20485;-86
2022/03/25 07:12:53;;;;;;;28.58;18.50;;;7.90;95.30;;;;;;6112749;23;20500;-85
2022/03/25 07:15:37;;;;;;;40.97;19.63;;;8.00;95.20;;;;;;6113312;23;20195;-86
2022/03/25 07:18:13;;;;;;;28.27;17.93;;;8.10;95.00;;;;;;6109248;23;20428;-85
2022/03/25 07:21:03;;;;;;;;;;;;;;;;;;;;;
2022/03/25 07:23:42;;;;;;;35.40;20.33;;;8.40;94.60;;;;;;6103838;23;20456;-84
2022/03/25 07:29:34;;;;;;;33.40;20.20;;;8.60;94.10;;;;;;6105364;23;20439;-86
2022/03/25 07:32:26;;;;;;;35.07;20.63;;;8.60;93.90;;;;;;6105489;23;20451;-86
2022/03/25 07:35:19;;;;;;;30.47;18.90;;;8.70;93.90;;;;;;6107603;23;20487;-87
2022/03/25 07:38:25;;;;;;;41.23;21.73;;;8.90;93.60;;;;;;6106583;23;20459;-85
2022/03/25 07:43:47;;;;;;;33.17;20.70;;;9.20;93.20;;;;;;6102501;23;20413;-85
2022/03/25 07:46:14;;;;;;;35.27;21.53;;;9.40;92.80;;;;;;6104242;23;20405;-85
2022/03/25 07:48:43;;;;;;;31.47;20.50;;;9.50;92.40;;;;;;6111235;23;20416;-84
2022/03/25 07:51:15;;;;;;;30.10;19.83;;;9.60;91.60;;;;;;6114889;23;20444;-84
2022/03/25 07:53:43;;;;;;;39.63;21.20;;;9.60;91.60;;;;;;6112019;23;20468;-86
2022/03/25 07:56:12;;;;;;;35.10;22.37;;;9.60;91.20;;;;;;6114853;23;20374;-83
2022/03/25 07:58:39;;;;;;;33.30;21.70;;;9.60;91.00;;;;;;6116908;23;20528;-85
2022/03/25 08:01:06;;;;;;;41.80;23.27;;;9.60;91.20;;;;;;6106958;23;20411;-86
2022/03/25 08:03:33;;;;;;;49.03;21.13;;;9.70;91.00;;;;;;6107692;23;20452;-86
2022/03/25 08:06:00;;;;;;;31.93;21.00;;;10.00;90.30;;;;;;6106846;23;20413;-85
2022/03/25 08:08:28;;;;;;;36.33;22.23;;;10.10;89.40;;;;;;6105069;23;20426;-86
2022/03/25 08:11:01;;;;;;;34.07;21.33;;;10.40;87.90;;;;;;6105788;23;20380;-86
2022/03/25 08:13:30;;;;;;;34.43;21.40;;;10.40;87.50;;;;;;6110277;23;20444;-86
2022/03/25 08:15:57;;;;;;;34.40;20.47;;;10.40;86.60;;;;;;6111892;23;20371;-86
2022/03/25 08:18:26;;;;;;;32.60;21.50;;;10.40;86.80;;;;;;6106771;23;20467;-86
2022/03/25 08:20:55;;;;;;;40.70;22.33;;;10.40;86.90;;;;;;6107160;23;20441;-86
2022/03/25 08:29:00;;;;;;;38.93;21.70;;;10.60;85.90;;;;;;6105126;23;20355;-86
2022/03/25 08:31:28;;;;;;;29.50;19.73;;;10.90;85.30;;;;;;6104281;23;20444;-86
2022/03/25 08:33:56;;;;;;;36.83;23.00;;;10.90;84.50;;;;;;6108516;23;20448;-86
2022/03/25 08:36:24;;;;;;;35.03;22.57;;;10.90;84.50;;;;;;6104700;23;20503;-85
2022/03/25 08:38:55;;;;;;;36.90;21.50;;;11.00;83.60;;;;;;6116857;23;20401;-85
2022/03/25 08:41:22;;;;;;;36.97;22.47;;;11.10;83.00;;;;;;6111936;23;20404;-85
2022/03/25 08:43:51;;;;;;;49.40;23.77;;;11.20;82.60;;;;;;6116114;23;20400;-87
2022/03/25 08:46:25;;;;;;;32.43;21.40;;;11.40;82.30;;;;;;6107511;23;20511;-86
2022/03/25 08:48:55;;;;;;;36.93;22.40;;;11.50;81.30;;;;;;6103579;23;20465;-85
2022/03/25 08:51:23;;;;;;;36.40;21.67;;;11.50;81.00;;;;;;6104139;23;20397;-86
2022/03/25 08:53:50;;;;;;;34.07;22.57;;;11.70;80.50;;;;;;6102765;23;20444;-86
2022/03/25 08:56:17;;;;;;;40.43;23.40;;;11.80;79.40;;;;;;6104063;23;20413;-86
2022/03/25 08:58:44;;;;;;;36.27;23.40;;;11.80;78.80;;;;;;6102440;23;20391;-85
2022/03/25 09:01:11;;;;;;;39.20;21.33;;;11.90;77.40;;;;;;6102629;23;20413;-85
2022/03/25 09:03:40;;;;;;;45.73;23.97;;;12.00;76.80;;;;;;6103893;23;20394;-86
2022/03/25 09:06:07;;;;;;;39.80;23.00;;;12.20;75.80;;;;;;6104257;23;20428;-86
2022/03/25 09:08:34;;;;;;;38.70;22.40;;;12.30;75.20;;;;;;6104392;23;20395;-85
2022/03/25 09:11:03;;;;;;;37.17;23.43;;;12.40;74.60;;;;;;6106494;23;20671;-87
2022/03/25 09:13:30;;;;;;;42.20;22.60;;;12.50;73.40;;;;;;6102966;23;20454;-87
2022/03/25 09:15:57;;;;;;;40.87;22.00;;;12.50;73.40;;;;;;6108542;23;20438;-87
2022/03/25 09:18:24;;;;;;;34.47;24.13;;;12.60;73.00;;;;;;6110626;23;20910;-87
2022/03/25 09:20:53;;;;;;;37.77;22.20;;;12.70;72.20;;;;;;6114362;23;20466;-86
2022/03/25 09:23:21;;;;;;;33.30;21.90;;;12.90;72.00;;;;;;6106510;23;20503;-85
2022/03/25 09:25:48;;;;;;;38.27;24.13;;;12.90;70.40;;;;;;6103688;23;20450;-84
2022/03/25 09:28:30;;;;;;;37.40;23.03;;;13.10;70.10;;;;;;6103028;23;20398;-86
2022/03/25 09:31:00;;;;;;;33.83;22.67;;;13.20;69.50;;;;;;6104003;23;20433;-86
2022/03/25 09:33:27;;;;;;;39.70;23.87;;;13.40;69.30;;;;;;6101816;23;20497;-86
2022/03/25 09:35:57;;;;;;;37.87;22.27;;;13.40;67.80;;;;;;6101209;23;20443;-85
2022/03/25 09:38:24;;;;;;;45.63;23.87;;;13.50;67.60;;;;;;6103652;23;20779;-86
2022/03/25 09:41:04;;;;;;;37.43;24.00;;;13.50;67.80;;;;;;6105801;23;20392;-87
2022/03/25 09:43:31;;;;;;;32.00;21.80;;;13.60;66.30;;;;;;6105171;23;20470;-86
2022/03/25 09:45:59;;;;;;;38.83;21.77;;;13.70;65.70;;;;;;6104989;23;20819;-86
2022/03/25 09:48:26;;;;;;;40.00;23.80;;;13.90;65.10;;;;;;6105141;23;20883;-87
2022/03/25 09:50:56;;;;;;;36.30;22.87;;;13.90;64.80;;;;;;6104125;23;20394;-86
2022/03/25 09:53:28;;;;;;;37.67;25.63;;;14.10;64.20;;;;;;6108304;23;20490;-87
2022/03/25 09:55:58;;;;;;;43.57;26.70;;;14.20;63.30;;;;;;6116236;23;20421;-86
2022/03/25 09:58:28;;;;;;;37.20;25.60;;;14.30;62.50;;;;;;6116602;23;20364;-87
2022/03/25 10:00:59;;;;;;;36.07;23.97;;;14.30;61.40;;;;;;6115869;23;20442;-87
2022/03/25 10:03:32;;;;;;;37.30;23.90;;;14.50;61.00;;;;;;6113819;23;20467;-85
2022/03/25 10:06:01;;;;;;;32.83;21.30;;;14.60;59.50;;;;;;6103553;23;20376;-87
2022/03/25 10:08:32;;;;;;;35.23;21.90;;;14.50;58.20;;;;;;6102378;23;20411;-86
2022/03/25 10:11:26;;;;;;;39.80;26.60;;;14.60;57.70;;;;;;6105038;23;20413;-87
2022/03/25 10:14:15;;;;;;;34.90;23.60;;;14.60;57.10;;;;;;6107152;23;20387;-87
2022/03/25 10:16:46;;;;;;;37.50;25.20;;;14.60;57.00;;;;;;6107557;23;20423;-87
2022/03/25 10:19:13;;;;;;;41.80;25.90;;;14.70;56.70;;;;;;6107057;23;20449;-86
2022/03/25 10:21:55;;;;;;;47.83;28.07;;;14.80;56.00;;;;;;6107870;23;20427;-87
2022/03/25 10:24:39;;;;;;;34.73;23.90;;;14.90;56.00;;;;;;6106168;23;20382;-86
2022/03/25 10:27:07;;;;;;;31.57;22.80;;;15.00;54.70;;;;;;6108210;23;20409;-85
2022/03/25 10:29:36;;;;;;;34.50;24.30;;;15.00;53.90;;;;;;6105311;23;20387;-86
2022/03/25 10:32:10;;;;;;;34.93;23.73;;;15.00;52.40;;;;;;6105984;23;20403;-86
2022/03/25 10:34:38;;;;;;;36.93;25.00;;;15.00;52.80;;;;;;6104154;23;20492;-85
2022/03/25 10:37:09;;;;;;;30.50;20.20;;;15.10;51.60;;;;;;6109308;23;20387;-86
2022/03/25 10:39:36;;;;;;;32.00;20.67;;;15.20;51.90;;;;;;6117377;23;20386;-85
2022/03/25 10:42:08;;;;;;;38.00;26.03;;;15.10;51.60;;;;;;6114224;23;20392;-86
2022/03/25 10:44:43;;;;;;;31.17;21.23;;;15.10;52.30;;;;;;6104937;23;20847;-86
2022/03/25 10:47:24;;;;;;;39.40;24.90;;;15.20;52.40;;;;;;6105186;23;20397;-87
2022/03/25 10:50:05;;;;;;;38.97;25.87;;;15.30;51.50;;;;;;6110041;23;20388;-86
2022/03/25 10:52:34;;;;;;;37.27;23.37;;;15.30;51.20;;;;;;6108921;23;20456;-87
2022/03/25 10:55:19;;;;;;;35.00;23.93;;;15.40;51.00;;;;;;6106841;23;20759;-86
2022/03/25 10:57:51;;;;;;;37.57;24.17;;;15.50;51.80;;;;;;6105157;23;20459;-87
2022/03/25 11:00:20;;;;;;;35.47;22.47;;;15.60;51.80;;;;;;6107121;23;20387;-85
2022/03/25 11:30:25;;;;;;;29.57;18.80;;;16.20;49.30;;;;;;5775230;24;20380;-86
2022/03/25 11:39:44;;;;;;;37.60;23.47;;;16.60;48.30;;;;;;6014525;23;20412;-87
2022/03/25 11:42:56;;;;;;;35.10;23.00;;;16.80;47.80;;;;;;6024777;23;20438;-88
2022/03/25 12:12:34;;;;;;;27.80;21.10;;;17.30;46.40;;;;;;5834741;24;20419;-88
2022/03/25 12:33:09;;;;;;;33.17;22.33;;;17.60;47.40;;;;;;6063116;23;20429;-87
2022/03/25 12:36:22;;;;;;;29.70;20.80;;;17.70;47.10;;;;;;6078010;23;20454;-87
2022/03/25 13:10:10;;;;;;;35.20;23.90;;;18.10;46.10;;;;;;6079995;23;20405;-88
2022/03/25 13:13:57;;;;;;;;;;;;;;;;;;;;;
2022/03/25 13:20:25;;;;;;;28.00;20.77;;;18.30;44.90;;;;;;5992111;23;20436;-87
2022/03/25 13:23:33;;;;;;;33.83;24.07;;;18.50;44.60;;;;;;6077147;23;20476;-88
2022/03/25 13:29:45;;;;;;;33.60;23.97;;;18.40;46.10;;;;;;6019886;23;20418;-89
2022/03/25 14:13:18;;;;;;;31.10;22.07;;;18.80;43.00;;;;;;6011441;23;20409;-87
2022/03/25 14:57:04;;;;;;;33.20;23.70;;;19.20;45.10;;;;;;6099515;23;20463;-87
2022/03/25 17:19:49;;;;;;;32.93;22.37;;;17.80;44.10;;;;;;5973396;23;20420;-87
2022/03/25 17:32:29;;;;;;;32.43;22.10;;;17.40;45.10;;;;;;5889936;24;20377;-88
2022/03/25 17:35:28;;;;;;;33.40;21.67;;;17.40;45.10;;;;;;5989348;23;20439;-88
2022/03/25 17:38:38;;;;;;;32.50;22.43;;;17.30;45.10;;;;;;6104606;23;20856;-88
2022/03/25 17:41:58;;;;;;;31.40;23.60;;;17.30;45.30;;;;;;6109039;23;20427;-88
2022/03/25 17:52:33;;;;;;;39.60;25.53;;;17.10;45.70;;;;;;5974611;24;20380;-89
2022/03/25 18:02:10;;;;;;;37.60;25.97;;;17.00;46.40;;;;;;6007162;23;20401;-87
2022/03/25 18:04:43;;;;;;;38.07;26.53;;;16.90;46.50;;;;;;6109252;23;20444;-87
2022/03/25 18:07:13;;;;;;;33.40;24.37;;;16.80;47.00;;;;;;6116254;23;20424;-88
2022/03/25 18:09:51;;;;;;;35.10;26.33;;;16.80;47.10;;;;;;6113498;23;20403;-87
2022/03/25 18:19:47;;;;;;;34.60;24.83;;;16.60;47.80;;;;;;6017789;23;20408;-87
2022/03/25 18:22:45;;;;;;;38.97;24.20;;;16.50;48.30;;;;;;6020637;23;20766;-87
2022/03/25 18:25:20;;;;;;;33.27;24.30;;;16.60;48.50;;;;;;6026098;23;20383;-87
2022/03/25 18:28:04;;;;;;;43.93;25.47;;;16.50;48.80;;;;;;6023155;23;20409;-87
2022/03/25 18:30:43;;;;;;;34.43;24.93;;;16.50;48.90;;;;;;6019438;23;20440;-87
2022/03/25 18:33:24;;;;;;;40.27;24.73;;;16.40;49.10;;;;;;6019143;23;20845;-87
2022/03/25 18:36:08;;;;;;;33.60;24.00;;;16.40;49.10;;;;;;6018649;23;20437;-87
2022/03/25 18:38:55;;;;;;;33.03;25.30;;;16.30;49.10;;;;;;6040953;23;20415;-86
2022/03/25 18:41:33;;;;;;;33.73;23.40;;;16.20;49.20;;;;;;6116968;23;20409;-86
2022/03/25 18:44:22;;;;;;;;;;;;;;;;;;;;;
2022/03/25 18:47:22;;;;;;;36.10;24.83;;;16.00;49.40;;;;;;6112199;23;20352;-89
2022/03/25 18:49:49;;;;;;;36.93;25.17;;;15.90;49.90;;;;;;6121591;23;20361;-88
2022/03/25 18:52:27;;;;;;;40.47;25.90;;;15.90;50.00;;;;;;6114404;23;20480;-86
2022/03/25 18:54:59;;;;;;;38.97;25.83;;;15.80;50.40;;;;;;6111949;23;20411;-87
2022/03/25 18:57:38;;;;;;;34.53;24.47;;;15.60;50.80;;;;;;6112996;23;20523;-88
2022/03/25 19:00:19;;;;;;;37.73;22.83;;;15.60;51.00;;;;;;6111913;23;20423;-88
2022/03/25 19:02:48;;;;;;;33.53;24.33;;;15.70;51.10;;;;;;6111226;23;20407;-87
2022/03/25 19:05:15;;;;;;;37.50;26.70;;;15.60;51.00;;;;;;6110633;23;20432;-87
2022/03/25 19:07:46;;;;;;;39.93;24.60;;;15.60;51.20;;;;;;6111232;23;20390;-88
2022/03/25 19:10:13;;;;;;;36.80;24.70;;;15.40;51.50;;;;;;6116476;23;20478;-87
2022/03/25 19:12:44;;;;;;;36.30;26.57;;;15.40;51.80;;;;;;6115916;23;20395;-87
2022/03/25 19:15:14;;;;;;;39.60;25.50;;;15.40;51.80;;;;;;6114430;23;20408;-87
2022/03/25 19:17:49;;;;;;;37.20;26.33;;;15.30;52.30;;;;;;6113650;23;20446;-85
2022/03/25 19:20:18;;;;;;;35.53;25.70;;;15.30;53.00;;;;;;6107289;23;20402;-88
2022/03/25 19:22:52;;;;;;;32.57;22.73;;;15.20;53.70;;;;;;6108229;23;20405;-87
2022/03/25 19:25:23;;;;;;;39.30;25.20;;;15.20;54.00;;;;;;6114940;23;20416;-88
2022/03/25 19:27:54;;;;;;;34.27;23.27;;;15.00;54.40;;;;;;6114114;23;20380;-87
2022/03/25 19:33:26;;;;;;;33.33;22.63;;;14.80;55.10;;;;;;6103614;23;20516;-86
2022/03/25 19:39:42;;;;;;;38.63;24.70;;;14.50;55.70;;;;;;6095973;23;20380;-87
2022/03/25 19:45:23;;;;;;;32.47;24.13;;;14.30;56.30;;;;;;6020851;23;20382;-88
2022/03/25 19:48:08;;;;;;;36.50;23.37;;;14.30;56.60;;;;;;6028289;23;20432;-87
2022/03/25 19:50:50;;;;;;;36.50;23.67;;;14.10;57.00;;;;;;6107641;23;20405;-88
2022/03/25 19:53:39;;;;;;;34.30;23.60;;;14.10;57.20;;;;;;6118260;23;20476;-88
2022/03/25 19:56:38;;;;;;;34.30;24.50;;;14.10;57.40;;;;;;6121098;23;20424;-88
2022/03/25 19:59:22;;;;;;;39.30;24.47;;;14.00;57.50;;;;;;6121680;23;20375;-89
2022/03/25 20:08:29;;;;;;;33.87;22.60;;;13.70;57.90;;;;;;6063573;23;20456;-87
2022/03/25 20:11:53;;;;;;;31.83;21.80;;;13.60;58.10;;;;;;6110792;23;20424;-85
2022/03/25 20:14:56;;;;;;;33.60;23.60;;;13.60;58.00;;;;;;5997384;24;20767;-86
2022/03/25 20:18:23;;;;;;;36.83;23.53;;;13.50;58.00;;;;;;5996417;24;20462;-86
2022/03/25 20:20:53;;;;;;;38.67;24.97;;;13.40;58.30;;;;;;5883596;24;20408;-88
2022/03/25 20:23:56;;;;;;;36.53;23.33;;;13.30;58.60;;;;;;6014479;23;20433;-86
2022/03/25 20:26:33;;;;;;;37.30;25.80;;;13.20;58.90;;;;;;6111951;23;20416;-87
2022/03/25 20:29:17;;;;;;;44.77;26.17;;;13.10;59.00;;;;;;6116671;23;20413;-87
2022/03/25 20:35:32;;;;;;;36.60;24.43;;;13.00;59.60;;;;;;6066530;23;20492;-88
2022/03/25 20:38:03;;;;;;;35.73;22.93;;;13.00;59.80;;;;;;6080592;23;20455;-87
2022/03/25 20:40:51;;;;;;;34.90;22.67;;;12.90;60.20;;;;;;6111984;23;20374;-87
2022/03/25 20:43:24;;;;;;;40.00;23.83;;;13.00;60.40;;;;;;6113530;23;20437;-87
2022/03/25 20:46:04;;;;;;;40.40;26.33;;;13.00;61.00;;;;;;6108990;23;20708;-88
2022/03/25 20:48:52;;;;;;;34.80;24.20;;;12.90;60.30;;;;;;6107503;23;20448;-87
2022/03/25 20:55:13;;;;;;;37.57;25.60;;;12.70;61.00;;;;;;6047807;23;20433;-87
2022/03/25 20:58:13;;;;;;;38.03;24.50;;;12.60;61.30;;;;;;6106347;23;20469;-88
2022/03/25 21:04:39;;;;;;;38.93;21.47;;;12.50;61.10;;;;;;6038647;23;20417;-86
2022/03/25 21:07:40;;;;;;;35.20;23.97;;;12.40;61.10;;;;;;5995078;23;20813;-86
2022/03/25 21:10:22;;;;;;;35.93;23.07;;;12.40;61.50;;;;;;6111291;23;20421;-86
2022/03/25 21:13:03;;;;;;;39.40;23.40;;;12.20;62.10;;;;;;6112122;23;20421;-88
2022/03/25 21:15:43;;;;;;;33.90;22.27;;;12.20;62.60;;;;;;6109856;23;20403;-87
2022/03/25 21:18:38;;;;;;;35.83;23.93;;;12.20;63.10;;;;;;6109007;23;20444;-87
2022/03/25 21:24:21;;;;;;;41.13;24.77;;;12.00;63.10;;;;;;6106273;23;20396;-88
2022/03/25 21:27:12;;;;;;;33.33;23.83;;;12.00;63.00;;;;;;6108465;23;20405;-86
2022/03/25 21:29:55;;;;;;;34.13;23.33;;;11.90;63.60;;;;;;6113014;23;20417;-87
2022/03/25 21:32:27;;;;;;;38.00;23.53;;;11.70;63.70;;;;;;6121692;23;20443;-87
2022/03/25 21:35:07;;;;;;;39.83;25.33;;;11.70;64.40;;;;;;6119229;23;20419;-87
2022/03/25 21:37:42;;;;;;;39.77;25.73;;;11.60;64.40;;;;;;6118982;23;20419;-86
2022/03/25 21:40:36;;;;;;;36.37;23.90;;;11.70;64.30;;;;;;6121264;23;20417;-88
2022/03/25 21:43:20;;;;;;;33.00;21.90;;;11.60;64.50;;;;;;6114527;23;20468;-88
2022/03/25 21:49:58;;;;;;;32.67;22.80;;;11.60;64.90;;;;;;6068181;23;20409;-86
2022/03/25 21:59:54;;;;;;;;;;;;;;;;;;;;;
2022/03/25 22:09:07;;;;;;;35.17;23.30;;;11.30;66.20;;;;;;6106532;23;20397;-88
2022/03/25 22:15:24;;;;;;;34.83;22.23;;;11.10;66.50;;;;;;6056011;23;20410;-87
2022/03/25 22:18:33;;;;;;;35.30;23.27;;;11.00;66.80;;;;;;6061409;23;20454;-87
2022/03/25 22:22:09;;;;;;;33.27;22.40;;;11.00;67.30;;;;;;6098161;23;20451;-86
2022/03/25 22:28:31;;;;;;;34.70;22.40;;;10.70;68.30;;;;;;6116037;23;20399;-85
2022/03/25 22:34:51;;;;;;;;;;;;;;;;;;;;;
